Time;durP1;ratioP1;P1;durP2;ratioP2;P2;SDS_P1;SDS_P2;PMS_P1;PMS_P2;Temp;Humidity;BMP_temperature;BMP_pressure;BME280_temperature;BME280_humidity;BME280_pressure;Samples;Min_cycle;Max_cycle;Signal;HPM_P1;HPM_P2
2023/03/06 00:00:23;;;;;;;313.80;111.82;;;-1.70;99.90;;;;;;5053236;28;20483;-78
2023/03/06 00:02:49;;;;;;;190.18;77.88;;;-1.80;99.90;;;;;;5054039;28;20037;-79
2023/03/06 00:05:15;;;;;;;211.32;85.50;;;-1.80;99.90;;;;;;5054235;28;20031;-78
2023/03/06 00:07:41;;;;;;;465.55;191.32;;;-1.70;99.90;;;;;;5054008;28;20025;-78
2023/03/06 00:10:10;;;;;;;364.70;136.15;;;-1.80;99.90;;;;;;5052861;28;20029;-78
2023/03/06 00:12:35;;;;;;;197.73;81.28;;;-1.80;99.90;;;;;;5052712;28;20025;-78
2023/03/06 00:15:01;;;;;;;100.63;43.97;;;-1.70;99.90;;;;;;5052699;28;20027;-78
2023/03/06 00:17:27;;;;;;;66.75;30.27;;;-1.70;99.90;;;;;;5052581;28;20037;-78
2023/03/06 00:19:53;;;;;;;60.60;27.92;;;-1.70;99.90;;;;;;5052591;28;20013;-78
2023/03/06 00:22:19;;;;;;;52.35;22.70;;;-1.70;99.90;;;;;;5053778;28;20033;-78
2023/03/06 00:24:44;;;;;;;52.40;22.92;;;-1.70;99.90;;;;;;5052408;28;20033;-78
2023/03/06 00:27:10;;;;;;;48.63;20.20;;;-1.80;99.90;;;;;;5052403;28;20031;-78
2023/03/06 00:29:35;;;;;;;42.35;22.15;;;-1.80;99.90;;;;;;5053827;28;20013;-78
2023/03/06 00:32:01;;;;;;;50.35;22.45;;;-1.80;99.90;;;;;;5053686;28;20074;-78
2023/03/06 00:34:27;;;;;;;61.33;28.58;;;-1.90;99.90;;;;;;5053617;28;20061;-78
2023/03/06 00:36:52;;;;;;;153.88;63.28;;;-1.90;99.90;;;;;;5053396;28;20088;-78
2023/03/06 00:39:18;;;;;;;78.63;36.63;;;-1.90;99.90;;;;;;5052279;28;20013;-78
2023/03/06 00:41:44;;;;;;;145.90;55.13;;;-1.90;99.90;;;;;;5052268;28;20017;-78
2023/03/06 00:44:09;;;;;;;96.97;43.00;;;-1.90;99.90;;;;;;5052038;28;20040;-78
2023/03/06 00:46:35;;;;;;;115.18;50.63;;;-1.90;99.90;;;;;;5051853;28;20049;-77
2023/03/06 00:49:01;;;;;;;133.60;53.10;;;-1.80;99.90;;;;;;5052134;28;20120;-77
2023/03/06 00:51:26;;;;;;;93.70;39.50;;;-1.90;99.90;;;;;;5053303;28;20031;-77
2023/03/06 00:53:52;;;;;;;96.65;38.92;;;-1.90;99.90;;;;;;5052010;28;20025;-77
2023/03/06 00:56:18;;;;;;;111.68;46.10;;;-1.90;99.90;;;;;;5051953;28;20127;-78
2023/03/06 00:58:44;;;;;;;113.60;46.20;;;-1.90;99.90;;;;;;5051928;28;20387;-78
2023/03/06 01:01:10;;;;;;;142.20;58.25;;;-1.90;99.90;;;;;;5053136;28;20029;-78
2023/03/06 01:03:35;;;;;;;114.72;49.53;;;-1.90;99.90;;;;;;5051827;28;20040;-77
2023/03/06 01:06:01;;;;;;;163.50;65.63;;;-2.00;99.90;;;;;;5051832;28;20155;-77
2023/03/06 01:08:26;;;;;;;432.83;150.60;;;-2.00;99.90;;;;;;5051829;28;20040;-77
2023/03/06 01:10:52;;;;;;;146.02;61.03;;;-2.00;99.90;;;;;;5052911;28;20025;-78
2023/03/06 01:13:17;;;;;;;59.33;26.83;;;-2.00;99.90;;;;;;5054816;28;20028;-78
2023/03/06 01:15:43;;;;;;;47.95;22.52;;;-2.00;99.90;;;;;;5071773;28;20028;-78
2023/03/06 01:18:09;;;;;;;48.83;24.83;;;-2.10;99.90;;;;;;5071745;28;20025;-78
2023/03/06 01:20:34;;;;;;;47.00;22.55;;;-2.10;99.90;;;;;;5071829;28;20021;-78
2023/03/06 01:23:00;;;;;;;44.80;21.08;;;-2.10;99.90;;;;;;5071657;28;20032;-79
2023/03/06 01:25:26;;;;;;;45.35;20.67;;;-2.20;99.90;;;;;;5072879;28;20025;-79
2023/03/06 01:27:52;;;;;;;40.03;19.88;;;-2.20;99.90;;;;;;5071671;28;20021;-79
2023/03/06 01:30:18;;;;;;;36.85;17.55;;;-2.30;99.90;;;;;;5071702;28;20016;-76
2023/03/06 01:32:44;;;;;;;30.88;17.42;;;-2.30;99.90;;;;;;5072908;28;20027;-79
2023/03/06 01:35:11;;;;;;;35.08;17.58;;;-2.30;99.90;;;;;;5071610;28;20029;-78
2023/03/06 01:37:37;;;;;;;35.58;17.92;;;-2.30;99.90;;;;;;5072839;28;20446;-78
2023/03/06 01:40:04;;;;;;;40.35;17.85;;;-2.30;99.90;;;;;;5071568;28;20398;-78
2023/03/06 01:42:29;;;;;;;44.33;20.05;;;-2.30;99.90;;;;;;5066447;28;20021;-78
2023/03/06 01:44:59;;;;;;;42.30;20.17;;;-2.30;99.90;;;;;;5051565;28;20036;-78
2023/03/06 01:47:24;;;;;;;45.97;19.02;;;-2.20;99.90;;;;;;5051192;28;20093;-77
2023/03/06 01:49:50;;;;;;;37.97;18.85;;;-2.20;99.90;;;;;;5052618;28;20108;-78
2023/03/06 01:52:20;;;;;;;38.13;19.70;;;-2.20;99.90;;;;;;5052994;28;20017;-78
2023/03/06 01:55:14;;;;;;;34.45;17.55;;;-2.10;99.90;;;;;;5052955;28;20028;-77
2023/03/06 01:57:43;;;;;;;40.28;19.17;;;-2.10;99.90;;;;;;5048762;28;20036;-77
2023/03/06 02:00:15;;;;;;;36.97;18.10;;;-2.10;99.90;;;;;;5050663;28;20017;-78
2023/03/06 02:02:44;;;;;;;38.90;17.55;;;-2.10;99.90;;;;;;5051003;28;20032;-80
2023/03/06 02:05:10;;;;;;;36.90;18.08;;;-2.10;99.90;;;;;;5051179;28;20075;-80
2023/03/06 02:07:37;;;;;;;27.73;14.70;;;-2.10;99.90;;;;;;5051279;28;20025;-78
2023/03/06 02:10:04;;;;;;;35.33;16.65;;;-2.10;99.90;;;;;;5052649;28;20029;-78
2023/03/06 02:12:30;;;;;;;32.92;16.75;;;-2.10;99.90;;;;;;5051165;28;20021;-78
2023/03/06 02:14:56;;;;;;;23.58;13.82;;;-2.10;99.90;;;;;;5051279;28;20089;-78
2023/03/06 02:17:22;;;;;;;32.50;15.50;;;-2.00;99.90;;;;;;5051164;28;20017;-78
2023/03/06 02:19:54;;;;;;;28.98;14.98;;;-2.00;99.90;;;;;;5051129;28;20418;-79
2023/03/06 02:22:21;;;;;;;31.30;14.87;;;-2.00;99.90;;;;;;5052463;28;20028;-79
2023/03/06 02:25:36;;;;;;;30.27;14.73;;;-2.00;99.90;;;;;;5054038;28;20302;-78
2023/03/06 02:28:03;;;;;;;30.40;14.32;;;-2.00;99.90;;;;;;4997763;28;20037;-80
2023/03/06 02:30:29;;;;;;;28.80;14.02;;;-2.00;99.90;;;;;;5048496;28;20036;-79
2023/03/06 02:32:56;;;;;;;25.85;13.30;;;-2.00;99.90;;;;;;5054656;28;20083;-79
2023/03/06 02:35:24;;;;;;;25.38;13.18;;;-2.00;99.90;;;;;;5055726;28;20031;-79
2023/03/06 02:37:51;;;;;;;30.80;14.80;;;-2.00;99.90;;;;;;5054433;28;20480;-79
2023/03/06 02:40:19;;;;;;;28.25;13.98;;;-2.00;99.90;;;;;;5055748;28;20032;-79
2023/03/06 02:42:49;;;;;;;24.15;13.30;;;-2.10;99.90;;;;;;5055609;28;20045;-79
2023/03/06 02:45:22;;;;;;;27.10;14.55;;;-2.00;99.90;;;;;;5054312;28;20017;-78
2023/03/06 02:47:48;;;;;;;26.75;13.02;;;-2.00;99.90;;;;;;5055797;28;20494;-79
2023/03/06 02:50:13;;;;;;;31.30;14.50;;;-2.00;99.90;;;;;;5054315;28;20070;-79
2023/03/06 02:52:39;;;;;;;27.52;14.65;;;-2.10;99.90;;;;;;5055446;28;20017;-79
2023/03/06 02:55:05;;;;;;;33.10;16.15;;;-2.00;99.90;;;;;;5054229;28;20386;-78
2023/03/06 02:57:31;;;;;;;33.45;17.77;;;-2.00;99.90;;;;;;5055313;28;20096;-78
2023/03/06 02:59:56;;;;;;;31.90;18.45;;;-2.00;99.90;;;;;;5054214;28;20035;-78
2023/03/06 03:02:22;;;;;;;35.95;19.20;;;-2.00;99.90;;;;;;5055280;28;20029;-79
2023/03/06 03:04:47;;;;;;;38.90;19.42;;;-2.00;99.90;;;;;;5055256;28;20044;-77
2023/03/06 03:07:13;;;;;;;36.90;21.08;;;-2.00;99.90;;;;;;5055131;28;20100;-78
2023/03/06 03:09:39;;;;;;;42.28;21.10;;;-2.00;99.90;;;;;;5054065;28;20021;-77
2023/03/06 03:12:06;;;;;;;39.95;20.77;;;-2.00;99.90;;;;;;5053836;28;20009;-79
2023/03/06 03:14:32;;;;;;;41.47;22.77;;;-2.00;99.90;;;;;;5053761;28;20025;-78
2023/03/06 03:16:57;;;;;;;44.25;23.80;;;-2.00;99.90;;;;;;5054980;28;20032;-79
2023/03/06 03:19:23;;;;;;;48.60;24.70;;;-2.00;99.90;;;;;;5053726;28;20048;-80
2023/03/06 03:21:48;;;;;;;46.20;23.30;;;-2.00;99.90;;;;;;5053605;28;20021;-80
2023/03/06 03:24:15;;;;;;;47.92;24.60;;;-2.00;99.90;;;;;;5053470;28;20104;-78
2023/03/06 03:26:41;;;;;;;41.03;23.70;;;-1.90;99.90;;;;;;5053516;28;20474;-78
2023/03/06 03:29:07;;;;;;;47.72;25.05;;;-1.90;99.90;;;;;;5053552;28;20029;-78
2023/03/06 03:31:32;;;;;;;45.85;24.80;;;-1.90;99.90;;;;;;5053388;28;20025;-80
2023/03/06 03:33:59;;;;;;;46.50;25.10;;;-2.00;99.90;;;;;;5053441;28;20024;-78
2023/03/06 03:36:26;;;;;;;46.28;23.40;;;-1.90;99.90;;;;;;5052400;28;20025;-78
2023/03/06 03:38:52;;;;;;;49.08;25.48;;;-1.90;99.90;;;;;;5053648;28;20045;-79
2023/03/06 03:41:17;;;;;;;48.55;25.75;;;-1.90;99.90;;;;;;5053247;28;20029;-78
2023/03/06 03:43:43;;;;;;;52.30;27.13;;;-1.90;99.90;;;;;;5053210;28;20040;-78
2023/03/06 03:46:10;;;;;;;51.47;28.15;;;-1.90;99.90;;;;;;5052902;28;20144;-79
2023/03/06 03:48:35;;;;;;;50.38;26.45;;;-1.90;99.90;;;;;;5054451;28;20443;-78
2023/03/06 03:51:05;;;;;;;49.47;26.70;;;-1.90;99.90;;;;;;5054390;28;20100;-79
2023/03/06 03:53:32;;;;;;;54.08;26.98;;;-1.90;99.90;;;;;;5054562;28;20079;-80
2023/03/06 03:55:57;;;;;;;54.55;28.05;;;-1.90;99.90;;;;;;5053147;28;20033;-79
2023/03/06 03:58:23;;;;;;;46.47;26.67;;;-1.90;99.90;;;;;;5053074;28;20433;-79
2023/03/06 04:00:49;;;;;;;57.95;27.80;;;-1.90;99.90;;;;;;5054071;28;20528;-80
2023/03/06 04:03:14;;;;;;;60.72;28.83;;;-1.90;99.90;;;;;;5054077;28;20025;-82
2023/03/06 04:05:40;;;;;;;54.83;27.35;;;-1.90;99.90;;;;;;5052686;28;20025;-82
2023/03/06 04:08:06;;;;;;;56.85;29.08;;;-1.90;99.90;;;;;;5052754;28;20090;-79
2023/03/06 04:10:33;;;;;;;58.38;29.58;;;-1.90;99.90;;;;;;5052754;28;20025;-78
2023/03/06 04:12:59;;;;;;;58.17;30.23;;;-1.90;99.90;;;;;;5054399;28;20158;-80
2023/03/06 04:15:25;;;;;;;59.38;30.58;;;-1.90;99.90;;;;;;5052892;28;20111;-79
2023/03/06 04:17:50;;;;;;;56.78;30.27;;;-1.90;99.90;;;;;;5053867;28;20025;-80
2023/03/06 04:20:16;;;;;;;62.35;29.50;;;-1.80;99.90;;;;;;5052730;28;20017;-78
2023/03/06 04:22:42;;;;;;;64.30;32.03;;;-1.80;99.90;;;;;;5052303;28;20504;-79
2023/03/06 04:25:08;;;;;;;68.03;32.03;;;-1.90;99.90;;;;;;5052536;28;20021;-78
2023/03/06 04:27:34;;;;;;;61.50;31.17;;;-1.80;99.90;;;;;;5052282;28;20021;-79
2023/03/06 04:30:00;;;;;;;55.17;26.90;;;-1.80;99.90;;;;;;5053696;28;20032;-78
2023/03/06 04:32:26;;;;;;;65.50;31.67;;;-1.80;99.90;;;;;;5053610;28;20025;-80
2023/03/06 04:34:51;;;;;;;56.35;31.35;;;-1.80;99.90;;;;;;5052415;28;20017;-78
2023/03/06 04:37:20;;;;;;;69.13;34.17;;;-1.80;99.90;;;;;;5052173;28;20529;-80
2023/03/06 04:39:46;;;;;;;72.20;34.45;;;-1.80;99.90;;;;;;5052218;28;20055;-79
2023/03/06 04:42:12;;;;;;;68.75;35.90;;;-1.80;99.90;;;;;;5053403;28;20048;-79
2023/03/06 04:44:37;;;;;;;77.90;34.55;;;-1.80;99.90;;;;;;5052100;28;20063;-81
2023/03/06 04:47:03;;;;;;;75.88;37.45;;;-1.80;99.90;;;;;;5052879;28;20049;-80
2023/03/06 04:49:29;;;;;;;73.18;35.20;;;-1.80;99.90;;;;;;5052061;28;20029;-81
2023/03/06 04:51:55;;;;;;;71.40;33.55;;;-1.90;99.90;;;;;;5052030;28;20044;-80
2023/03/06 04:54:20;;;;;;;86.05;37.92;;;-1.80;99.90;;;;;;5053369;28;20025;-79
2023/03/06 04:56:46;;;;;;;83.50;37.80;;;-1.80;99.90;;;;;;5053199;28;20493;-78
2023/03/06 04:59:11;;;;;;;79.63;38.50;;;-1.80;99.90;;;;;;5053279;28;20138;-79
2023/03/06 05:01:37;;;;;;;77.93;36.28;;;-1.80;99.90;;;;;;5051875;28;20028;-78
2023/03/06 05:04:02;;;;;;;91.25;39.80;;;-1.80;99.90;;;;;;5053067;28;20091;-77
2023/03/06 05:06:28;;;;;;;85.15;37.85;;;-1.80;99.90;;;;;;5053079;28;20028;-79
2023/03/06 05:08:54;;;;;;;91.13;38.95;;;-1.80;99.90;;;;;;5051806;28;20118;-78
2023/03/06 05:11:19;;;;;;;95.07;40.78;;;-1.80;99.90;;;;;;5051754;28;20475;-79
2023/03/06 05:13:45;;;;;;;89.47;42.92;;;-1.70;99.90;;;;;;5053047;28;20386;-78
2023/03/06 05:16:10;;;;;;;95.15;42.35;;;-1.70;99.90;;;;;;5052936;28;20039;-78
2023/03/06 05:18:36;;;;;;;92.03;41.78;;;-1.70;99.90;;;;;;5053049;28;20021;-80
2023/03/06 05:21:03;;;;;;;93.75;41.10;;;-1.70;99.90;;;;;;5052953;28;20067;-79
2023/03/06 05:23:30;;;;;;;95.38;40.30;;;-1.70;99.90;;;;;;5064256;28;20456;-78
2023/03/06 05:25:57;;;;;;;92.78;40.58;;;-1.70;99.90;;;;;;5072971;28;20055;-78
2023/03/06 05:28:24;;;;;;;97.70;42.40;;;-1.70;99.90;;;;;;5058225;28;20095;-79
2023/03/06 05:30:50;;;;;;;89.35;39.70;;;-1.70;99.90;;;;;;5051341;28;20021;-81
2023/03/06 05:33:16;;;;;;;93.18;41.47;;;-1.70;99.90;;;;;;5051165;28;20021;-81
2023/03/06 05:35:48;;;;;;;92.25;41.08;;;-1.70;99.90;;;;;;5051274;28;20022;-81
2023/03/06 05:38:14;;;;;;;;;;;-1.70;99.90;;;;;;5051541;28;20025;-79
2023/03/06 05:40:41;;;;;;;93.85;39.28;;;-1.70;99.90;;;;;;5052473;28;19931;-81
2023/03/06 05:43:07;;;;;;;89.20;37.85;;;-1.60;99.90;;;;;;5050953;28;20548;-81
2023/03/06 05:45:34;;;;;;;84.10;40.25;;;-1.60;99.90;;;;;;5052445;28;20112;-81
2023/03/06 05:47:59;;;;;;;86.75;37.50;;;-1.60;99.90;;;;;;5052378;28;20170;-81
2023/03/06 05:50:25;;;;;;;81.32;37.30;;;-1.60;99.90;;;;;;5051199;28;20056;-80
2023/03/06 05:52:50;;;;;;;80.45;37.70;;;-1.60;99.90;;;;;;5052399;28;20520;-80
2023/03/06 05:55:18;;;;;;;78.40;38.22;;;-1.50;99.90;;;;;;5052330;28;20463;-80
2023/03/06 05:57:44;;;;;;;78.95;35.22;;;-1.50;99.90;;;;;;5050964;28;20017;-79
2023/03/06 06:00:10;;;;;;;77.18;36.50;;;-1.40;99.90;;;;;;5056125;28;20048;-79
2023/03/06 06:02:36;;;;;;;83.10;37.33;;;-1.30;99.90;;;;;;5054687;28;20024;-80
2023/03/06 06:05:02;;;;;;;116.82;49.70;;;-1.30;99.90;;;;;;5054886;28;20510;-79
2023/03/06 06:07:28;;;;;;;199.60;82.10;;;-1.30;99.90;;;;;;5069037;28;20083;-78
2023/03/06 06:09:53;;;;;;;106.38;43.67;;;-1.20;99.90;;;;;;5048892;28;20442;-78
2023/03/06 06:12:19;;;;;;;80.35;37.08;;;-1.20;99.90;;;;;;5049412;28;20022;-78
2023/03/06 06:14:45;;;;;;;77.20;34.88;;;-1.20;99.90;;;;;;5050439;28;20037;-79
2023/03/06 06:17:11;;;;;;;74.15;34.75;;;-1.10;99.90;;;;;;5037509;28;20040;-78
2023/03/06 06:19:37;;;;;;;78.78;35.05;;;-1.10;99.90;;;;;;5040716;28;20042;-78
2023/03/06 06:22:04;;;;;;;76.43;33.30;;;-1.00;99.90;;;;;;5051483;28;20028;-77
2023/03/06 06:24:30;;;;;;;74.82;33.60;;;-1.00;99.90;;;;;;5049093;28;20042;-78
2023/03/06 06:26:58;;;;;;;65.00;30.55;;;-1.00;99.90;;;;;;5052035;28;20021;-77
2023/03/06 06:29:25;;;;;;;68.25;31.02;;;-1.00;99.90;;;;;;5053475;28;20052;-77
2023/03/06 06:31:52;;;;;;;62.42;29.98;;;-0.90;99.90;;;;;;5055072;28;20103;-77
2023/03/06 06:34:18;;;;;;;66.95;29.77;;;-0.80;99.90;;;;;;5053308;28;20067;-78
2023/03/06 06:36:44;;;;;;;71.05;32.75;;;-0.70;99.90;;;;;;5051894;28;20070;-80
2023/03/06 06:39:13;;;;;;;66.40;30.52;;;-0.70;99.90;;;;;;5054800;28;20111;-79
2023/03/06 06:41:39;;;;;;;61.08;29.33;;;-0.60;99.90;;;;;;5062620;28;20697;-79
2023/03/06 06:44:06;;;;;;;54.05;27.58;;;-0.60;99.90;;;;;;5054257;28;20037;-77
2023/03/06 06:46:33;;;;;;;58.38;29.92;;;-0.60;99.90;;;;;;5054061;28;20045;-78
2023/03/06 06:49:01;;;;;;;60.53;28.20;;;-0.50;99.90;;;;;;5055699;28;20032;-78
2023/03/06 06:51:28;;;;;;;55.92;28.58;;;-0.50;99.90;;;;;;5054338;28;20013;-78
2023/03/06 06:53:54;;;;;;;54.33;26.48;;;-0.50;99.90;;;;;;5055698;28;20033;-78
2023/03/06 06:56:20;;;;;;;58.78;27.35;;;-0.40;99.90;;;;;;5054491;28;20470;-79
2023/03/06 06:58:45;;;;;;;54.47;25.38;;;-0.30;99.90;;;;;;5055328;28;20018;-78
2023/03/06 07:01:12;;;;;;;52.03;25.52;;;-0.30;99.90;;;;;;5054702;28;20053;-78
2023/03/06 07:03:39;;;;;;;45.95;23.17;;;-0.20;99.90;;;;;;5069958;28;20090;-78
2023/03/06 07:06:05;;;;;;;44.58;21.95;;;-0.10;99.90;;;;;;5053201;28;20056;-79
2023/03/06 07:08:31;;;;;;;48.10;22.55;;;-0.10;99.90;;;;;;5054569;28;20027;-78
2023/03/06 07:10:57;;;;;;;46.42;23.35;;;0.00;99.90;;;;;;5053032;28;20029;-79
2023/03/06 07:13:23;;;;;;;47.35;23.30;;;0.00;99.90;;;;;;5053210;28;20021;-78
2023/03/06 07:15:49;;;;;;;47.63;23.30;;;0.10;99.90;;;;;;5053882;28;20086;-78
2023/03/06 07:18:14;;;;;;;45.53;23.45;;;0.10;99.90;;;;;;5055279;28;20100;-78
2023/03/06 07:20:40;;;;;;;50.08;23.50;;;0.10;99.90;;;;;;5055056;28;20025;-78
2023/03/06 07:23:12;;;;;;;51.65;23.40;;;0.10;99.90;;;;;;5053753;28;20063;-78
2023/03/06 07:25:38;;;;;;;42.88;22.08;;;0.10;99.90;;;;;;5055027;28;20028;-78
2023/03/06 07:28:04;;;;;;;45.78;23.52;;;0.10;99.90;;;;;;5055156;28;20025;-78
2023/03/06 07:30:29;;;;;;;45.15;24.52;;;0.00;99.90;;;;;;5055013;28;20586;-78
2023/03/06 07:32:57;;;;;;;49.35;25.95;;;0.00;99.90;;;;;;5053596;28;20021;-78
2023/03/06 07:35:23;;;;;;;53.15;27.63;;;-0.10;99.90;;;;;;5054676;28;20455;-79
2023/03/06 07:37:50;;;;;;;52.10;24.35;;;-0.10;99.90;;;;;;5053646;28;20028;-78
2023/03/06 07:40:16;;;;;;;46.33;25.50;;;-0.20;99.90;;;;;;5053626;28;20390;-78
2023/03/06 07:42:42;;;;;;;49.78;25.75;;;-0.20;99.90;;;;;;5053084;28;20071;-78
2023/03/06 07:45:08;;;;;;;51.63;26.05;;;-0.20;99.90;;;;;;5054532;28;20499;-77
2023/03/06 07:47:33;;;;;;;53.05;25.88;;;-0.10;99.90;;;;;;5054550;28;20463;-79
2023/03/06 07:50:02;;;;;;;48.17;24.75;;;0.00;99.90;;;;;;5053356;28;20052;-78
2023/03/06 07:52:28;;;;;;;62.47;29.15;;;0.10;99.90;;;;;;5054695;28;20025;-79
2023/03/06 07:54:54;;;;;;;48.15;25.80;;;0.10;99.90;;;;;;5054535;28;20025;-78
2023/03/06 07:57:19;;;;;;;45.50;24.80;;;0.30;99.90;;;;;;5053235;28;20025;-78
2023/03/06 07:59:45;;;;;;;53.50;25.40;;;0.40;99.90;;;;;;5053157;28;20112;-78
2023/03/06 08:02:11;;;;;;;49.63;23.92;;;0.50;99.90;;;;;;5054623;28;20032;-78
2023/03/06 08:04:37;;;;;;;50.15;25.00;;;0.50;99.90;;;;;;5054195;28;20046;-78
2023/03/06 08:07:03;;;;;;;46.92;22.17;;;0.50;99.90;;;;;;5052952;28;20025;-78
2023/03/06 08:09:28;;;;;;;45.08;23.27;;;0.70;99.90;;;;;;5054268;28;20467;-78
2023/03/06 08:11:54;;;;;;;38.35;22.50;;;0.80;99.90;;;;;;5054069;28;20021;-79
2023/03/06 08:14:20;;;;;;;44.13;21.70;;;0.90;99.90;;;;;;5054213;28;20383;-79
2023/03/06 08:16:47;;;;;;;40.60;21.42;;;1.10;99.90;;;;;;5052814;28;20013;-79
2023/03/06 08:19:14;;;;;;;42.63;23.10;;;1.20;99.90;;;;;;5052807;28;20032;-78
2023/03/06 08:21:39;;;;;;;37.60;20.08;;;1.20;99.90;;;;;;5052534;28;20554;-78
2023/03/06 08:24:05;;;;;;;39.17;20.00;;;1.30;99.90;;;;;;5052578;28;20124;-79
2023/03/06 08:26:31;;;;;;;39.28;20.25;;;1.30;99.90;;;;;;5052785;28;20029;-78
2023/03/06 08:28:59;;;;;;;37.65;20.65;;;1.50;99.90;;;;;;5053922;28;20021;-78
2023/03/06 08:31:28;;;;;;;37.45;20.17;;;1.50;99.90;;;;;;5053871;28;20425;-79
2023/03/06 08:33:55;;;;;;;34.47;19.90;;;1.60;99.90;;;;;;5052499;28;20028;-79
2023/03/06 08:36:21;;;;;;;37.25;19.33;;;1.70;99.90;;;;;;5052661;28;20017;-78
2023/03/06 08:38:47;;;;;;;35.22;19.23;;;1.70;99.90;;;;;;5054001;28;20025;-78
2023/03/06 08:41:13;;;;;;;32.10;17.33;;;1.80;99.90;;;;;;5053623;28;20056;-78
2023/03/06 08:43:39;;;;;;;30.92;16.33;;;1.90;99.90;;;;;;5053708;28;20033;-79
2023/03/06 08:46:04;;;;;;;28.70;15.90;;;1.80;99.90;;;;;;5052041;28;20519;-78
2023/03/06 08:48:30;;;;;;;25.52;14.27;;;1.80;99.90;;;;;;5052363;28;20111;-78
2023/03/06 08:50:56;;;;;;;23.88;13.13;;;1.80;99.90;;;;;;5053506;28;20025;-78
2023/03/06 08:53:23;;;;;;;27.23;14.52;;;1.90;99.90;;;;;;5053633;28;20111;-78
2023/03/06 08:55:48;;;;;;;26.33;14.07;;;2.10;99.90;;;;;;5052088;28;20363;-78
2023/03/06 08:58:14;;;;;;;24.65;12.82;;;2.20;99.90;;;;;;5052203;28;20028;-79
2023/03/06 09:00:39;;;;;;;22.85;12.45;;;2.40;99.90;;;;;;5052038;28;20025;-79
2023/03/06 09:03:05;;;;;;;19.88;11.27;;;2.40;99.90;;;;;;5052082;28;20029;-79
2023/03/06 09:05:31;;;;;;;21.92;11.27;;;2.50;98.90;;;;;;5053269;28;20021;-78
2023/03/06 09:07:57;;;;;;;21.25;12.75;;;2.60;98.90;;;;;;5052379;28;20470;-79
2023/03/06 09:10:24;;;;;;;19.42;12.32;;;2.80;99.00;;;;;;5051988;28;20033;-79
2023/03/06 09:12:50;;;;;;;19.90;12.32;;;2.70;96.70;;;;;;5053282;28;20070;-79
2023/03/06 09:15:17;;;;;;;24.67;12.75;;;2.70;96.30;;;;;;5053398;28;20021;-79
2023/03/06 09:17:42;;;;;;;20.80;12.27;;;2.70;96.60;;;;;;5052084;28;20021;-79
2023/03/06 09:20:10;;;;;;;21.38;11.82;;;2.70;96.40;;;;;;5051852;28;20024;-80
2023/03/06 09:22:37;;;;;;;19.83;12.73;;;2.80;95.50;;;;;;5053051;28;20037;-79
2023/03/06 09:25:04;;;;;;;17.95;9.93;;;2.70;93.50;;;;;;5053040;28;20033;-79
2023/03/06 09:27:29;;;;;;;17.35;10.73;;;2.70;92.70;;;;;;5053081;28;20033;-79
2023/03/06 09:29:55;;;;;;;17.35;10.35;;;2.80;91.90;;;;;;5053197;28;20021;-80
2023/03/06 09:32:22;;;;;;;20.90;11.32;;;2.90;92.60;;;;;;5052623;28;20029;-79
2023/03/06 09:34:48;;;;;;;24.67;13.32;;;2.90;93.20;;;;;;5055953;28;20029;-79
2023/03/06 09:37:14;;;;;;;20.60;12.38;;;2.90;89.80;;;;;;5055721;28;20020;-79
2023/03/06 09:39:40;;;;;;;18.65;10.75;;;2.90;90.00;;;;;;5055807;28;20463;-79
2023/03/06 09:42:13;;;;;;;19.13;10.30;;;3.10;93.00;;;;;;5056948;28;20112;-79
2023/03/06 09:44:42;;;;;;;18.75;10.20;;;3.20;91.70;;;;;;5055681;28;20132;-80
2023/03/06 09:47:33;;;;;;;22.65;11.55;;;3.20;90.80;;;;;;5055460;28;20045;-79
2023/03/06 09:50:23;;;;;;;18.83;11.25;;;3.30;88.90;;;;;;5055648;28;20032;-80
2023/03/06 09:53:11;;;;;;;23.95;11.75;;;3.60;92.00;;;;;;5055454;28;20033;-79
2023/03/06 09:55:39;;;;;;;22.95;12.15;;;3.70;89.70;;;;;;5056696;28;20150;-79
2023/03/06 09:58:10;;;;;;;23.67;13.13;;;3.70;83.70;;;;;;5055541;28;20017;-79
2023/03/06 10:00:40;;;;;;;18.90;10.18;;;3.70;84.90;;;;;;5056704;28;20083;-79
2023/03/06 10:03:32;;;;;;;21.73;11.27;;;3.80;85.40;;;;;;5055622;28;20021;-79
2023/03/06 10:06:33;;;;;;;18.50;11.07;;;3.80;82.80;;;;;;5055304;28;20032;-79
2023/03/06 10:09:21;;;;;;;19.85;10.73;;;3.80;82.70;;;;;;5052544;28;20033;-79
2023/03/06 10:11:47;;;;;;;27.98;14.07;;;3.90;84.10;;;;;;5056534;28;20391;-79
2023/03/06 10:14:20;;;;;;;25.88;12.95;;;3.90;83.30;;;;;;5055413;28;20025;-79
2023/03/06 10:16:46;;;;;;;25.20;13.18;;;4.00;83.90;;;;;;5055078;28;20029;-79
2023/03/06 10:19:16;;;;;;;24.42;14.80;;;4.20;83.10;;;;;;5056579;28;20040;-79
2023/03/06 10:21:52;;;;;;;25.83;14.20;;;4.10;80.90;;;;;;5056288;28;20025;-79
2023/03/06 10:24:57;;;;;;;22.17;12.50;;;4.20;80.50;;;;;;5056220;28;20033;-79
2023/03/06 10:27:50;;;;;;;20.38;12.20;;;4.40;82.10;;;;;;5031883;28;20068;-79
2023/03/06 10:30:15;;;;;;;23.40;12.82;;;4.50;78.20;;;;;;5054864;28;20389;-79
2023/03/06 10:32:53;;;;;;;21.67;10.95;;;4.50;76.10;;;;;;5054729;28;20112;-79
2023/03/06 10:35:36;;;;;;;20.63;11.18;;;4.40;73.10;;;;;;5056016;28;20075;-79
2023/03/06 10:38:18;;;;;;;24.27;11.15;;;4.60;75.50;;;;;;5055137;28;20473;-79
2023/03/06 10:41:22;;;;;;;19.50;11.57;;;4.70;75.10;;;;;;5054922;28;20059;-79
2023/03/06 10:44:03;;;;;;;20.05;12.15;;;4.70;73.30;;;;;;5055355;28;20033;-79
2023/03/06 10:46:36;;;;;;;21.98;11.75;;;4.60;72.50;;;;;;5054713;28;20544;-79
2023/03/06 10:49:05;;;;;;;15.15;10.23;;;4.80;73.20;;;;;;5054469;28;20021;-79
2023/03/06 10:51:32;;;;;;;17.38;9.60;;;4.70;71.10;;;;;;5054306;28;20024;-80
2023/03/06 10:54:01;;;;;;;16.77;10.65;;;4.70;71.30;;;;;;5055723;28;20017;-79
2023/03/06 10:56:30;;;;;;;13.63;8.57;;;4.60;70.60;;;;;;5054267;28;20451;-79
2023/03/06 10:59:21;;;;;;;22.65;10.18;;;4.50;68.90;;;;;;5055646;28;20056;-79
2023/03/06 11:02:12;;;;;;;21.95;13.02;;;4.60;69.70;;;;;;5054609;28;20059;-80
2023/03/06 11:04:40;;;;;;;18.90;8.88;;;4.80;71.60;;;;;;5055547;28;20041;-79
2023/03/06 11:07:24;;;;;;;11.98;8.50;;;4.80;70.90;;;;;;5055438;28;20028;-79
2023/03/06 11:09:56;;;;;;;15.20;8.68;;;4.90;72.70;;;;;;5055292;28;20155;-79
2023/03/06 11:12:38;;;;;;;13.73;7.68;;;5.00;70.40;;;;;;5055284;28;20044;-79
2023/03/06 11:15:23;;;;;;;16.25;8.68;;;5.20;71.30;;;;;;5054048;28;20029;-80
2023/03/06 11:17:48;;;;;;;17.08;9.55;;;5.10;68.60;;;;;;5053932;28;20013;-79
2023/03/06 11:20:22;;;;;;;13.70;8.20;;;5.20;69.70;;;;;;5055167;28;20075;-79
2023/03/06 11:23:24;;;;;;;13.32;7.78;;;5.30;69.60;;;;;;5053834;28;20089;-79
2023/03/06 11:26:07;;;;;;;12.70;7.07;;;5.40;67.90;;;;;;5053855;28;20103;-79
2023/03/06 11:28:39;;;;;;;12.02;6.93;;;5.60;68.20;;;;;;5054223;28;20067;-79
2023/03/06 11:31:08;;;;;;;10.80;6.63;;;5.70;67.70;;;;;;5053811;28;20024;-79
2023/03/06 11:33:57;;;;;;;10.32;6.32;;;5.80;67.50;;;;;;5054905;28;20372;-79
2023/03/06 11:36:53;;;;;;;9.65;6.78;;;5.70;66.10;;;;;;5054793;28;20056;-79
2023/03/06 11:39:40;;;;;;;9.15;6.20;;;5.80;63.20;;;;;;5053518;28;20017;-80
2023/03/06 11:42:25;;;;;;;11.45;6.82;;;5.70;60.80;;;;;;5053906;28;20537;-79
2023/03/06 11:45:06;;;;;;;12.32;6.43;;;5.90;65.10;;;;;;5053462;28;20462;-80
2023/03/06 11:47:41;;;;;;;7.95;5.10;;;5.90;63.70;;;;;;5053186;28;20064;-79
2023/03/06 11:50:32;;;;;;;9.30;5.88;;;5.90;63.50;;;;;;5054503;28;20032;-79
2023/03/06 11:53:04;;;;;;;7.93;5.63;;;5.70;61.20;;;;;;5053283;28;20081;-80
2023/03/06 11:55:51;;;;;;;8.35;6.28;;;5.50;59.60;;;;;;5052506;28;20027;-79
2023/03/06 11:58:47;;;;;;;11.27;4.82;;;5.40;60.20;;;;;;5053407;28;20458;-79
2023/03/06 12:01:37;;;;;;;9.38;5.40;;;5.20;58.50;;;;;;5054389;28;20035;-79
2023/03/06 12:04:26;;;;;;;7.57;5.50;;;5.20;58.90;;;;;;5053365;28;20048;-80
2023/03/06 12:07:29;;;;;;;8.07;4.80;;;5.10;58.30;;;;;;5059064;28;20029;-79
2023/03/06 12:10:15;;;;;;;6.78;4.90;;;5.10;58.30;;;;;;5052988;28;20029;-79
2023/03/06 12:12:56;;;;;;;11.30;6.65;;;5.10;58.60;;;;;;5052883;28;20513;-79
2023/03/06 12:15:44;;;;;;;7.65;4.18;;;5.10;59.40;;;;;;5053748;28;20539;-80
2023/03/06 12:18:41;;;;;;;8.82;4.57;;;5.10;57.20;;;;;;5054139;28;20060;-79
2023/03/06 12:21:07;;;;;;;9.15;5.57;;;5.00;56.50;;;;;;5052682;28;20033;-79
2023/03/06 12:23:54;;;;;;;16.67;7.45;;;5.10;57.70;;;;;;5052626;28;20045;-79
2023/03/06 12:26:57;;;;;;;7.18;4.60;;;5.10;57.60;;;;;;5049347;28;20056;-79
2023/03/06 12:29:46;;;;;;;53.38;21.58;;;5.10;57.40;;;;;;5051662;28;20506;-79
2023/03/06 12:32:33;;;;;;;17.40;8.23;;;5.00;58.00;;;;;;5052681;28;20036;-79
2023/03/06 12:35:14;;;;;;;18.02;8.85;;;5.00;58.30;;;;;;5052770;28;20506;-79
2023/03/06 12:37:52;;;;;;;8.93;4.80;;;5.10;58.50;;;;;;5052924;28;20024;-79
2023/03/06 12:40:26;;;;;;;7.88;4.90;;;5.10;57.60;;;;;;5051401;28;20036;-80
2023/03/06 12:43:15;;;;;;;10.23;4.93;;;4.90;55.40;;;;;;5051605;28;20025;-80
2023/03/06 12:45:43;;;;;;;7.60;3.95;;;4.80;56.10;;;;;;5051318;28;20037;-80